createdAt,value
2022-12-08T00:01:14.600Z,3.47
2022-12-08T00:03:41.951Z,4.20
2022-12-08T00:06:30.750Z,5.90
2022-12-08T00:09:16.742Z,4.70
2022-12-08T00:11:43.788Z,5.57
2022-12-08T00:14:10.865Z,3.17
2022-12-08T00:16:37.965Z,4.67
2022-12-08T00:19:05.080Z,4.63
2022-12-08T00:21:32.146Z,4.20
2022-12-08T00:23:59.408Z,5.00
2022-12-08T00:26:26.495Z,3.77
2022-12-08T00:28:53.588Z,4.70
2022-12-08T00:31:20.765Z,4.17
2022-12-08T00:33:47.910Z,4.73
2022-12-08T00:36:15.424Z,4.57
2022-12-08T00:38:44.698Z,5.60
2022-12-08T00:41:13.761Z,5.90
2022-12-08T00:43:40.907Z,3.00
2022-12-08T00:46:08.110Z,4.77
2022-12-08T00:48:35.221Z,3.27
2022-12-08T00:51:02.374Z,4.67
2022-12-08T00:53:30.833Z,3.80
2022-12-08T00:55:57.905Z,4.93
2022-12-08T00:58:24.966Z,4.90
2022-12-08T01:00:52.167Z,3.60
2022-12-08T01:03:19.437Z,5.73
2022-12-08T01:05:46.510Z,4.10
2022-12-08T01:08:13.655Z,6.90
2022-12-08T01:10:40.770Z,2.80
2022-12-08T01:13:07.844Z,4.27
2022-12-08T01:15:34.908Z,3.53
2022-12-08T01:18:02.956Z,2.73
2022-12-08T01:20:30.036Z,3.67
2022-12-08T01:22:57.120Z,3.13
2022-12-08T01:25:24.188Z,4.17
2022-12-08T01:27:52.733Z,5.53
2022-12-08T01:30:20.356Z,4.80
2022-12-08T01:32:47.412Z,2.83
2022-12-08T01:35:14.529Z,3.53
2022-12-08T01:37:41.606Z,3.67
2022-12-08T01:40:08.958Z,4.93
2022-12-08T01:42:38.231Z,4.77
2022-12-08T01:45:14.892Z,3.37
2022-12-08T01:47:43.415Z,3.60
2022-12-08T01:50:12.279Z,3.47
2022-12-08T01:52:46.925Z,3.53
2022-12-08T01:55:19.525Z,4.93
2022-12-08T01:57:51.124Z,5.17
2022-12-08T02:00:19.459Z,4.40
2022-12-08T02:03:03.391Z,4.57
2022-12-08T02:05:34.788Z,4.77
2022-12-08T02:08:04.481Z,6.40
2022-12-08T02:10:34.127Z,4.90
2022-12-08T02:13:01.742Z,4.23
2022-12-08T02:15:43.348Z,4.60
2022-12-08T02:18:29.272Z,5.03
2022-12-08T02:21:19.068Z,5.10
2022-12-08T02:23:54.608Z,4.60
2022-12-08T02:26:40.597Z,4.87
2022-12-08T02:29:07.634Z,4.37
2022-12-08T02:31:37.821Z,5.43
2022-12-08T02:34:16.867Z,4.60
2022-12-08T02:36:59.259Z,4.30
2022-12-08T02:39:26.378Z,5.07
2022-12-08T02:42:11.213Z,5.57
2022-12-08T02:44:58.532Z,6.10
2022-12-08T02:47:25.877Z,9.57
2022-12-08T02:49:52.946Z,4.03
2022-12-08T02:52:19.982Z,6.97
2022-12-08T02:54:50.390Z,4.97
2022-12-08T02:57:32.600Z,5.03
2022-12-08T03:00:03.216Z,8.70
2022-12-08T03:02:41.195Z,4.07
2022-12-08T03:05:20.332Z,4.77
2022-12-08T03:07:47.451Z,8.80
2022-12-08T03:10:19.849Z,8.80
2022-12-08T03:12:51.018Z,8.07
2022-12-08T03:15:19.948Z,4.03
2022-12-08T03:17:50.888Z,4.10
2022-12-08T03:20:21.418Z,3.60
2022-12-08T03:22:49.878Z,6.00
2022-12-08T03:25:19.939Z,5.10
2022-12-08T03:27:47.030Z,3.80
2022-12-08T03:30:14.216Z,5.60
2022-12-08T03:32:55.998Z,4.43
2022-12-08T03:35:28.669Z,2.87
2022-12-08T03:38:10.767Z,4.60
2022-12-08T03:40:38.441Z,2.50
2022-12-08T03:43:05.498Z,4.43
2022-12-08T03:45:32.735Z,4.17
2022-12-08T03:47:59.785Z,3.70
2022-12-08T03:50:26.954Z,3.77
2022-12-08T03:52:54.071Z,5.90
2022-12-08T03:55:21.505Z,3.70
2022-12-08T03:57:48.532Z,3.83
2022-12-08T04:00:16.908Z,4.00
2022-12-08T04:02:44.093Z,4.70
2022-12-08T04:05:11.334Z,4.87
2022-12-08T04:07:38.447Z,3.73
2022-12-08T04:10:06.147Z,5.17
2022-12-08T04:12:33.355Z,5.17
2022-12-08T04:15:00.407Z,8.83
2022-12-08T04:17:27.950Z,3.90
2022-12-08T04:19:55.027Z,6.33
2022-12-08T04:22:22.131Z,5.53
2022-12-08T04:24:49.437Z,4.07
2022-12-08T04:27:16.519Z,6.13
2022-12-08T04:29:43.562Z,4.03
2022-12-08T04:32:10.662Z,3.80
2022-12-08T04:34:37.734Z,5.13
2022-12-08T04:37:04.879Z,3.53
2022-12-08T04:39:31.935Z,7.10
2022-12-08T04:41:59.011Z,4.53
2022-12-08T04:44:26.044Z,5.37
2022-12-08T04:46:53.299Z,3.60
2022-12-08T04:49:20.482Z,5.60
2022-12-08T04:51:47.594Z,4.73
2022-12-08T04:54:14.678Z,6.10
2022-12-08T04:56:41.738Z,4.10
2022-12-08T04:59:09.345Z,3.67
2022-12-08T05:01:36.518Z,4.23
2022-12-08T05:04:03.707Z,4.40
2022-12-08T05:06:30.788Z,5.47
2022-12-08T05:08:57.866Z,3.67
2022-12-08T05:11:24.899Z,5.63
2022-12-08T05:13:51.949Z,5.27
2022-12-08T05:16:19.115Z,5.57
2022-12-08T05:18:46.224Z,5.30
2022-12-08T05:21:13.301Z,4.90
2022-12-08T05:23:40.559Z,5.73
2022-12-08T05:26:07.789Z,5.37
2022-12-08T05:28:43.373Z,5.87
2022-12-08T05:31:11.752Z,6.07
2022-12-08T05:33:38.868Z,4.87
2022-12-08T05:36:06.061Z,4.40
2022-12-08T05:38:33.172Z,5.40
2022-12-08T05:41:00.280Z,4.50
2022-12-08T05:43:27.626Z,5.90
2022-12-08T05:45:54.737Z,3.97
2022-12-08T05:48:21.903Z,5.07
2022-12-08T05:50:49.453Z,4.93
2022-12-08T05:53:16.923Z,5.87
2022-12-08T05:55:44.347Z,6.77
2022-12-08T05:58:13.711Z,4.27
2022-12-08T06:00:40.966Z,5.70
2022-12-08T06:03:08.141Z,7.73
2022-12-08T06:05:35.844Z,8.00
2022-12-08T06:08:03.039Z,7.13
2022-12-08T06:10:30.235Z,7.00
2022-12-08T06:12:57.443Z,7.10
2022-12-08T06:15:24.629Z,12.93
2022-12-08T06:17:51.684Z,6.63
2022-12-08T06:20:18.852Z,5.77
2022-12-08T06:22:45.883Z,8.00
2022-12-08T06:25:12.960Z,6.70
2022-12-08T06:27:40.053Z,5.30
2022-12-08T06:30:07.733Z,6.50
2022-12-08T06:32:34.998Z,7.40
2022-12-08T06:35:02.134Z,11.10
2022-12-08T06:37:29.183Z,13.33
2022-12-08T06:39:56.813Z,8.00
2022-12-08T06:42:42.551Z,14.17
2022-12-08T06:45:10.046Z,8.70
2022-12-08T06:47:37.134Z,8.87
2022-12-08T06:50:04.624Z,8.13
2022-12-08T06:52:31.954Z,6.13
2022-12-08T06:54:59.020Z,5.73
2022-12-08T06:57:26.080Z,5.13
2022-12-08T06:59:53.109Z,6.73
2022-12-08T07:02:20.250Z,6.27
2022-12-08T07:04:47.623Z,10.03
2022-12-08T07:07:14.702Z,10.53
2022-12-08T07:09:41.786Z,6.40
2022-12-08T07:12:08.849Z,9.13
2022-12-08T07:14:35.985Z,6.90
2022-12-08T07:17:03.197Z,9.30
2022-12-08T07:19:30.291Z,6.23
2022-12-08T07:21:57.392Z,9.10
2022-12-08T07:24:24.521Z,8.40
2022-12-08T07:26:51.618Z,7.80
2022-12-08T07:29:24.620Z,7.90
2022-12-08T07:31:53.178Z,10.20
2022-12-08T07:34:20.266Z,7.87
2022-12-08T07:36:47.324Z,9.03
2022-12-08T07:39:14.362Z,7.90
2022-12-08T07:41:41.429Z,10.10
2022-12-08T07:44:09.224Z,7.77
2022-12-08T07:46:36.354Z,8.23
2022-12-08T07:49:03.580Z,7.80
2022-12-08T07:51:30.650Z,7.10
2022-12-08T07:53:57.786Z,8.70
2022-12-08T07:56:24.945Z,7.60
2022-12-08T07:58:52.017Z,7.57
2022-12-08T08:01:26.441Z,7.43
2022-12-08T08:03:55.276Z,7.53
2022-12-08T08:06:22.661Z,5.90
2022-12-08T08:08:49.781Z,6.07
2022-12-08T08:11:21.311Z,7.33
2022-12-08T08:13:49.587Z,5.07
2022-12-08T08:16:16.755Z,5.77
2022-12-08T08:18:43.982Z,6.27
2022-12-08T08:23:58.098Z,7.83
2022-12-08T08:26:25.187Z,9.60
2022-12-08T08:28:52.258Z,6.73
2022-12-08T08:31:19.423Z,9.37
2022-12-08T08:33:48.697Z,5.07
2022-12-08T08:36:15.749Z,9.30
2022-12-08T08:38:44.147Z,7.27
2022-12-08T08:41:11.769Z,5.77
2022-12-08T08:43:39.279Z,5.63
2022-12-08T08:46:06.976Z,6.07
2022-12-08T08:48:34.211Z,5.67
2022-12-08T08:51:07.964Z,7.33
2022-12-08T08:53:35.039Z,7.87
2022-12-08T08:56:03.048Z,6.33
2022-12-08T08:58:30.283Z,16.53
2022-12-08T09:00:57.360Z,18.03
2022-12-08T09:03:24.524Z,11.53
2022-12-08T09:05:51.671Z,8.77
2022-12-08T09:08:19.049Z,10.57
2022-12-08T09:10:46.196Z,10.47
2022-12-08T09:13:13.380Z,7.57
2022-12-08T09:15:41.033Z,7.90
2022-12-08T09:18:08.216Z,7.77
2022-12-08T09:20:35.914Z,10.37
2022-12-08T09:23:02.965Z,8.20
2022-12-08T09:25:30.019Z,7.10
2022-12-08T09:27:57.109Z,10.30
2022-12-08T09:30:24.254Z,7.10
2022-12-08T09:32:51.303Z,8.17
2022-12-08T09:35:18.456Z,7.13
2022-12-08T09:37:45.519Z,7.00
2022-12-08T09:40:16.570Z,7.00
2022-12-08T09:42:46.617Z,8.63
2022-12-08T09:45:14.755Z,6.87
2022-12-08T09:47:46.412Z,7.30
2022-12-08T09:50:23.232Z,5.57
2022-12-08T09:52:59.629Z,7.13
2022-12-08T09:55:35.257Z,7.00
2022-12-08T09:58:03.734Z,6.13
2022-12-08T10:00:30.889Z,5.33
2022-12-08T10:02:58.040Z,6.73
2022-12-08T10:05:27.000Z,5.30
2022-12-08T10:08:06.284Z,5.87
2022-12-08T10:10:42.483Z,5.70
2022-12-08T10:13:20.335Z,6.30
2022-12-08T10:15:47.412Z,6.27
2022-12-08T10:18:16.451Z,9.23
2022-12-08T10:20:44.911Z,6.33
2022-12-08T10:23:15.020Z,5.77
2022-12-08T10:25:45.441Z,8.73
2022-12-08T10:28:13.045Z,6.87
2022-12-08T10:30:40.311Z,5.77
2022-12-08T10:33:11.357Z,6.63
2022-12-08T10:35:48.512Z,6.10
2022-12-08T10:38:20.109Z,5.43
2022-12-08T10:40:47.807Z,5.63
2022-12-08T10:43:17.927Z,5.67
2022-12-08T10:45:45.390Z,6.80
2022-12-08T10:48:20.300Z,6.80
2022-12-08T10:50:53.289Z,6.70
2022-12-08T10:53:22.631Z,5.57
2022-12-08T10:55:49.714Z,5.83
2022-12-08T10:58:27.373Z,5.40
2022-12-08T11:00:55.664Z,7.27
2022-12-08T11:03:27.989Z,5.70
2022-12-08T11:06:01.697Z,7.37
2022-12-08T11:08:32.662Z,6.47
2022-12-08T11:10:59.775Z,5.47
2022-12-08T11:13:27.578Z,7.80
2022-12-08T11:15:55.459Z,6.00
2022-12-08T11:18:28.673Z,5.60
2022-12-08T11:21:00.422Z,6.17
2022-12-08T11:23:28.968Z,5.50
2022-12-08T11:25:58.563Z,6.53
2022-12-08T11:28:26.119Z,5.37
2022-12-08T11:30:55.994Z,5.47
2022-12-08T11:33:24.399Z,4.87
2022-12-08T11:36:02.829Z,5.93
2022-12-08T11:38:30.643Z,4.03
2022-12-08T11:41:15.540Z,4.40
2022-12-08T11:43:53.811Z,5.53
2022-12-08T11:46:32.624Z,5.23
2022-12-08T11:49:10.058Z,3.83
2022-12-08T11:51:37.150Z,3.30
2022-12-08T11:54:24.449Z,4.30
2022-12-08T11:56:58.827Z,3.87
2022-12-08T11:59:29.407Z,4.30
2022-12-08T12:01:57.765Z,3.43
2022-12-08T12:04:37.831Z,2.90
2022-12-08T12:07:28.319Z,4.43
2022-12-08T12:09:58.442Z,3.00
2022-12-08T12:12:39.716Z,3.93
2022-12-08T12:15:22.513Z,3.43
2022-12-08T12:17:49.601Z,4.97
2022-12-08T12:20:19.989Z,2.83
2022-12-08T12:22:49.385Z,3.60
2022-12-08T12:25:21.575Z,2.97
2022-12-08T12:27:49.917Z,3.30
2022-12-08T12:30:24.993Z,2.50
2022-12-08T12:32:57.498Z,3.40
2022-12-08T12:35:27.782Z,2.20
2022-12-08T12:37:58.320Z,2.90
2022-12-08T12:40:26.666Z,3.50
2022-12-08T12:42:56.476Z,4.30
2022-12-08T12:45:27.197Z,5.57
2022-12-08T12:47:56.571Z,3.90
2022-12-08T12:50:33.265Z,4.83
2022-12-08T12:53:18.975Z,3.33
2022-12-08T12:55:46.134Z,5.13
2022-12-08T12:58:28.532Z,3.47
2022-12-08T13:01:11.320Z,7.07
2022-12-08T13:03:49.181Z,3.43
2022-12-08T13:06:22.833Z,3.30
2022-12-08T13:08:53.885Z,4.23
2022-12-08T13:11:21.938Z,3.10
2022-12-08T13:13:59.940Z,3.83
2022-12-08T13:16:27.753Z,3.20
2022-12-08T13:19:04.630Z,3.83
2022-12-08T13:21:39.191Z,4.10
2022-12-08T13:24:19.834Z,3.47
2022-12-08T13:26:51.346Z,4.23
2022-12-08T13:29:22.707Z,4.00
2022-12-08T13:31:51.334Z,3.27
2022-12-08T13:34:25.210Z,2.53
2022-12-08T13:36:58.214Z,3.47
2022-12-08T13:39:28.610Z,4.63
2022-12-08T13:42:07.489Z,3.37
2022-12-08T13:45:24.270Z,3.73
2022-12-08T13:48:20.512Z,4.10
2022-12-08T13:51:23.782Z,3.80
2022-12-08T13:57:00.886Z,4.77
2022-12-08T13:59:09.189Z,4.47
2022-12-08T14:01:43.456Z,4.20
2022-12-08T14:04:42.635Z,3.33
2022-12-08T14:07:04.023Z,5.00
2022-12-08T14:09:35.455Z,4.57
2022-12-08T14:12:04.767Z,2.90
2022-12-08T14:15:01.335Z,3.27
2022-12-08T14:17:22.176Z,5.37
2022-12-08T14:19:59.197Z,3.70
2022-12-08T14:22:32.757Z,4.13
2022-12-08T14:24:59.901Z,3.33
2022-12-08T14:27:28.877Z,4.13
2022-12-08T14:29:57.053Z,4.07
2022-12-08T14:32:24.203Z,3.87
2022-12-08T14:34:52.078Z,4.17
2022-12-08T14:37:19.141Z,3.80
2022-12-08T14:39:46.555Z,3.20
2022-12-08T14:42:26.494Z,4.27
2022-12-08T14:45:01.450Z,4.67
2022-12-08T14:47:32.818Z,3.87
2022-12-08T14:50:00.073Z,5.47
2022-12-08T14:52:27.413Z,4.80
2022-12-08T14:54:55.358Z,3.57
2022-12-08T14:57:22.851Z,3.90
2022-12-08T14:59:50.149Z,3.83
2022-12-08T15:02:21.761Z,4.67
2022-12-08T15:04:50.734Z,4.10
2022-12-08T15:07:19.328Z,4.50
2022-12-08T15:09:48.719Z,3.93
2022-12-08T15:12:15.755Z,4.83
2022-12-08T15:14:42.821Z,4.13
2022-12-08T15:17:28.476Z,3.87
2022-12-08T15:19:56.507Z,5.90
2022-12-08T15:22:24.109Z,6.73
2022-12-08T15:24:51.167Z,5.63
2022-12-08T15:27:19.211Z,4.33
2022-12-08T15:29:47.132Z,6.00
2022-12-08T15:32:16.690Z,3.90
2022-12-08T15:34:43.766Z,4.60
2022-12-08T15:37:24.158Z,5.40
2022-12-08T15:39:51.349Z,4.73
2022-12-08T15:42:18.668Z,4.80
2022-12-08T15:44:45.928Z,4.53
2022-12-08T15:47:17.436Z,3.90
2022-12-08T15:49:45.191Z,4.70
2022-12-08T15:52:16.661Z,7.53
2022-12-08T15:54:43.733Z,5.77
2022-12-08T15:57:20.417Z,5.00
2022-12-08T15:59:52.766Z,3.80
2022-12-08T16:02:22.823Z,3.60
2022-12-08T16:07:38.221Z,3.80
2022-12-08T16:10:06.596Z,3.53
2022-12-08T16:15:53.613Z,6.57
2022-12-08T16:18:27.463Z,6.03
2022-12-08T16:21:39.971Z,5.07
2022-12-08T16:23:44.210Z,3.70
2022-12-08T16:26:35.715Z,5.30
2022-12-08T16:29:00.856Z,4.77
2022-12-08T16:31:28.027Z,3.93
2022-12-08T16:33:55.159Z,6.63
2022-12-08T16:36:22.292Z,4.57
2022-12-08T16:38:49.335Z,4.90
2022-12-08T16:41:35.877Z,4.53
2022-12-08T16:44:03.989Z,4.73
2022-12-08T16:46:31.367Z,4.33
2022-12-08T16:48:58.945Z,3.53
2022-12-08T16:51:27.427Z,5.83
2022-12-08T16:53:55.007Z,3.47
2022-12-08T16:56:26.221Z,2.80
2022-12-08T16:58:57.730Z,5.20
2022-12-08T17:01:24.850Z,4.40
2022-12-08T17:04:22.603Z,3.33
2022-12-08T17:06:39.050Z,2.90
2022-12-08T17:09:06.108Z,2.83
2022-12-08T17:11:39.043Z,4.50
2022-12-08T17:14:09.648Z,3.70
2022-12-08T17:16:36.776Z,4.27
2022-12-08T17:19:03.899Z,3.73
2022-12-08T17:21:30.934Z,4.20
2022-12-08T17:23:58.026Z,3.47
2022-12-08T17:26:25.241Z,5.97
2022-12-08T17:29:00.618Z,4.40
2022-12-08T17:31:30.220Z,3.63
2022-12-08T17:34:01.925Z,4.60
2022-12-08T17:36:29.059Z,3.93
2022-12-08T17:38:57.059Z,3.43
2022-12-08T17:41:24.153Z,3.80
2022-12-08T17:43:51.196Z,3.87
2022-12-08T17:46:19.332Z,3.83
2022-12-08T17:48:46.614Z,3.83
2022-12-08T17:51:13.970Z,4.17
2022-12-08T17:53:41.265Z,3.70
2022-12-08T17:56:14.534Z,3.57
2022-12-08T17:58:41.600Z,5.37
2022-12-08T18:01:11.900Z,3.90
2022-12-08T18:03:39.498Z,3.10
2022-12-08T18:06:07.283Z,4.70
2022-12-08T18:08:34.481Z,5.37
2022-12-08T18:11:01.913Z,4.27
2022-12-08T18:13:29.011Z,4.33
2022-12-08T18:15:56.059Z,5.90
2022-12-08T18:18:23.177Z,4.37
2022-12-08T18:20:50.414Z,5.00
2022-12-08T18:23:18.601Z,4.50
2022-12-08T18:25:45.727Z,3.93
2022-12-08T18:28:12.794Z,3.67
2022-12-08T18:30:40.698Z,3.83
2022-12-08T18:33:08.439Z,3.87
2022-12-08T18:35:35.554Z,3.50
2022-12-08T18:38:02.615Z,4.10
2022-12-08T18:40:29.953Z,5.27
2022-12-08T18:42:57.108Z,5.37
2022-12-08T18:45:24.253Z,4.13
2022-12-08T18:47:51.885Z,4.70
2022-12-08T18:50:19.227Z,5.03
2022-12-08T18:52:47.493Z,4.60
2022-12-08T18:55:15.408Z,4.03
2022-12-08T18:57:43.211Z,4.10
2022-12-08T19:00:12.198Z,4.73
2022-12-08T19:02:39.665Z,5.33
2022-12-08T19:05:07.729Z,4.23
2022-12-08T19:07:34.842Z,3.73
2022-12-08T19:10:01.977Z,3.83
2022-12-08T19:12:29.299Z,4.60
2022-12-08T19:14:56.407Z,4.00
2022-12-08T19:17:23.538Z,3.23
2022-12-08T19:19:50.608Z,4.13
2022-12-08T19:22:17.670Z,3.30
2022-12-08T19:24:44.718Z,3.73
2022-12-08T19:27:11.865Z,5.13
2022-12-08T19:29:38.969Z,3.87
2022-12-08T19:32:06.121Z,4.93
2022-12-08T19:34:33.330Z,4.87
2022-12-08T19:37:00.494Z,4.90
2022-12-08T19:39:46.157Z,4.17
2022-12-08T19:42:35.758Z,4.80
2022-12-08T19:45:05.659Z,4.77
2022-12-08T19:47:33.143Z,4.00
2022-12-08T19:50:23.597Z,4.17
2022-12-08T19:52:50.737Z,4.57
2022-12-08T19:55:17.832Z,7.17
2022-12-08T19:57:44.916Z,5.23
2022-12-08T20:00:12.877Z,5.10
2022-12-08T20:02:40.037Z,6.70
2022-12-08T20:05:07.871Z,4.83
2022-12-08T20:07:34.958Z,4.87
2022-12-08T20:10:04.187Z,5.03
2022-12-08T20:12:31.594Z,4.87
2022-12-08T20:14:58.700Z,6.23
2022-12-08T20:17:25.787Z,6.90
2022-12-08T20:19:52.942Z,5.47
2022-12-08T20:22:20.028Z,5.50
2022-12-08T20:24:57.236Z,5.03
2022-12-08T20:27:27.392Z,3.93
2022-12-08T20:29:54.430Z,5.53
2022-12-08T20:32:21.556Z,4.80
2022-12-08T20:34:48.946Z,5.07
2022-12-08T20:37:16.059Z,5.37
2022-12-08T20:39:43.214Z,5.37
2022-12-08T20:42:13.409Z,4.10
2022-12-08T20:44:44.130Z,5.93
2022-12-08T20:47:12.040Z,5.67
2022-12-08T20:49:39.345Z,5.53
2022-12-08T20:52:06.705Z,5.20
2022-12-08T20:54:34.365Z,6.93
2022-12-08T20:57:01.705Z,4.50
2022-12-08T20:59:29.174Z,4.97
2022-12-08T21:01:56.430Z,5.30
2022-12-08T21:04:24.089Z,5.67
2022-12-08T21:06:51.525Z,5.07
2022-12-08T21:09:18.770Z,6.80
2022-12-08T21:11:46.018Z,5.43
2022-12-08T21:14:13.460Z,6.10
2022-12-08T21:16:40.716Z,5.80
2022-12-08T21:19:08.407Z,5.63
2022-12-08T21:21:35.612Z,5.83
2022-12-08T21:24:03.467Z,6.33
2022-12-08T21:26:30.651Z,5.43
2022-12-08T21:28:58.953Z,5.37
2022-12-08T21:31:26.778Z,6.77
2022-12-08T21:33:55.171Z,6.07
2022-12-08T21:36:22.596Z,6.17
2022-12-08T21:38:50.034Z,5.80
2022-12-08T21:41:40.866Z,6.10
2022-12-08T21:44:09.554Z,5.73
2022-12-08T21:46:37.207Z,6.13
2022-12-08T21:49:04.804Z,6.23
2022-12-08T21:51:33.786Z,7.00
2022-12-08T21:54:01.065Z,7.73
2022-12-08T21:56:28.213Z,5.80
2022-12-08T21:58:55.315Z,8.57
2022-12-08T22:01:22.611Z,8.37
2022-12-08T22:03:49.847Z,7.20
2022-12-08T22:06:17.674Z,6.70
2022-12-08T22:08:45.213Z,7.30
2022-12-08T22:11:12.864Z,7.33
2022-12-08T22:13:41.008Z,6.77
2022-12-08T22:16:09.958Z,7.37
2022-12-08T22:18:37.715Z,6.40
2022-12-08T22:21:09.368Z,7.57
2022-12-08T22:23:36.515Z,8.43
2022-12-08T22:26:03.696Z,7.23
2022-12-08T22:28:32.305Z,8.70
2022-12-08T22:30:59.632Z,7.67
2022-12-08T22:33:28.993Z,9.00
2022-12-08T22:36:04.716Z,7.80
2022-12-08T22:38:35.661Z,7.33
2022-12-08T22:41:04.995Z,7.93
2022-12-08T22:43:32.564Z,7.57
2022-12-08T22:45:59.918Z,8.80
2022-12-08T22:48:27.063Z,8.07
2022-12-08T22:51:00.547Z,7.97
2022-12-08T22:53:27.699Z,7.83
2022-12-08T22:55:55.029Z,8.73
2022-12-08T22:58:22.387Z,8.20
2022-12-08T23:00:49.758Z,9.93
2022-12-08T23:03:17.047Z,9.27
2022-12-08T23:05:44.490Z,8.83
2022-12-08T23:08:14.663Z,8.23
2022-12-08T23:10:42.506Z,8.47
2022-12-08T23:13:09.623Z,8.73
2022-12-08T23:15:36.916Z,8.87
2022-12-08T23:18:04.269Z,9.33
2022-12-08T23:20:31.465Z,9.77
2022-12-08T23:22:58.530Z,9.97
2022-12-08T23:25:25.564Z,9.03
2022-12-08T23:27:53.044Z,8.83
2022-12-08T23:30:20.172Z,9.03
2022-12-08T23:32:47.325Z,13.10
2022-12-08T23:35:14.418Z,10.63
2022-12-08T23:37:41.526Z,12.13
2022-12-08T23:40:09.140Z,9.23
2022-12-08T23:42:36.440Z,10.23
2022-12-08T23:45:04.556Z,7.90
2022-12-08T23:47:31.738Z,8.47
2022-12-08T23:49:59.028Z,9.37
2022-12-08T23:52:26.105Z,10.23
2022-12-08T23:54:54.610Z,8.60
2022-12-08T23:57:22.556Z,9.80
2022-12-08T23:59:49.767Z,9.77
